sensor_id;sensor_type;location;lat;lon;timestamp;temperature;humidity
1534;DHT22;760;48.822;9.304;2024-03-02T05:06:40;4.20;99.90
1534;DHT22;760;48.822;9.304;2024-03-02T05:09:07;4.20;99.90
1534;DHT22;760;48.822;9.304;2024-03-02T05:11:33;4.10;99.90
1534;DHT22;760;48.822;9.304;2024-03-02T05:14:05;4.10;99.90
1534;DHT22;760;48.822;9.304;2024-03-02T05:16:37;4.00;99.90
1534;DHT22;760;48.822;9.304;2024-03-02T05:19:07;4.00;99.90
1534;DHT22;760;48.822;9.304;2024-03-02T05:21:33;3.90;99.90
1534;DHT22;760;48.822;9.304;2024-03-02T05:23:59;3.90;99.90
1534;DHT22;760;48.822;9.304;2024-03-02T05:26:25;3.90;99.90
1534;DHT22;760;48.822;9.304;2024-03-02T05:28:51;3.90;99.90
1534;DHT22;760;48.822;9.304;2024-03-02T05:31:16;3.80;99.90
1534;DHT22;760;48.822;9.304;2024-03-02T05:33:42;3.80;99.90
1534;DHT22;760;48.822;9.304;2024-03-02T05:36:09;3.80;99.90
1534;DHT22;760;48.822;9.304;2024-03-02T05:38:34;3.80;99.90
1534;DHT22;760;48.822;9.304;2024-03-02T05:41:00;3.80;99.90
1534;DHT22;760;48.822;9.304;2024-03-02T05:43:26;3.80;99.90
1534;DHT22;760;48.822;9.304;2024-03-02T05:45:52;3.80;99.90
1534;DHT22;760;48.822;9.304;2024-03-02T05:48:17;3.80;99.90
1534;DHT22;760;48.822;9.304;2024-03-02T05:50:43;3.70;99.90
1534;DHT22;760;48.822;9.304;2024-03-02T05:53:08;3.70;99.90
1534;DHT22;760;48.822;9.304;2024-03-02T05:55:34;3.70;99.90
1534;DHT22;760;48.822;9.304;2024-03-02T05:58:00;3.70;99.90
1534;DHT22;760;48.822;9.304;2024-03-02T06:00:32;3.70;99.90
1534;DHT22;760;48.822;9.304;2024-03-02T06:02:58;3.70;99.90
1534;DHT22;760;48.822;9.304;2024-03-02T06:05:24;3.70;99.90
1534;DHT22;760;48.822;9.304;2024-03-02T06:07:50;3.70;99.90
1534;DHT22;760;48.822;9.304;2024-03-02T06:10:16;3.70;99.90
1534;DHT22;760;48.822;9.304;2024-03-02T06:12:41;3.70;99.90
1534;DHT22;760;48.822;9.304;2024-03-02T06:15:07;3.80;99.90
1534;DHT22;760;48.822;9.304;2024-03-02T06:17:35;3.80;99.90
1534;DHT22;760;48.822;9.304;2024-03-02T06:20:00;3.80;99.90
1534;DHT22;760;48.822;9.304;2024-03-02T06:22:26;3.90;99.90
1534;DHT22;760;48.822;9.304;2024-03-02T06:24:52;3.90;99.90
1534;DHT22;760;48.822;9.304;2024-03-02T06:27:17;4.00;99.90
1534;DHT22;760;48.822;9.304;2024-03-02T06:29:43;4.00;99.90
1534;DHT22;760;48.822;9.304;2024-03-02T06:32:08;4.00;99.90
1534;DHT22;760;48.822;9.304;2024-03-02T06:34:34;4.10;99.90
1534;DHT22;760;48.822;9.304;2024-03-02T06:37:00;4.10;99.90
1534;DHT22;760;48.822;9.304;2024-03-02T06:39:25;4.20;99.90
1534;DHT22;760;48.822;9.304;2024-03-02T06:41:51;4.20;99.90
1534;DHT22;760;48.822;9.304;2024-03-02T06:44:17;4.30;99.90
1534;DHT22;760;48.822;9.304;2024-03-02T06:46:43;4.30;99.90
1534;DHT22;760;48.822;9.304;2024-03-02T06:49:08;4.30;99.90
1534;DHT22;760;48.822;9.304;2024-03-02T06:51:36;4.40;99.90
1534;DHT22;760;48.822;9.304;2024-03-02T06:54:01;4.40;99.90
1534;DHT22;760;48.822;9.304;2024-03-02T06:56:27;4.40;99.90
1534;DHT22;760;48.822;9.304;2024-03-02T06:58:53;4.50;99.90
1534;DHT22;760;48.822;9.304;2024-03-02T07:01:18;4.60;99.90
1534;DHT22;760;48.822;9.304;2024-03-02T07:03:45;4.70;99.90
1534;DHT22;760;48.822;9.304;2024-03-02T07:06:11;4.70;99.90
1534;DHT22;760;48.822;9.304;2024-03-02T07:08:36;4.80;99.90
1534;DHT22;760;48.822;9.304;2024-03-02T07:11:02;4.80;99.90
1534;DHT22;760;48.822;9.304;2024-03-02T07:13:28;5.00;99.90
1534;DHT22;760;48.822;9.304;2024-03-02T07:15:53;5.10;99.90
1534;DHT22;760;48.822;9.304;2024-03-02T07:18:31;5.30;99.90
1534;DHT22;760;48.822;9.304;2024-03-02T07:20:57;5.50;99.90
1534;DHT22;760;48.822;9.304;2024-03-02T07:23:27;5.70;99.90
1534;DHT22;760;48.822;9.304;2024-03-02T07:25:56;6.00;99.90
1534;DHT22;760;48.822;9.304;2024-03-02T07:28:25;6.30;99.90
1534;DHT22;760;48.822;9.304;2024-03-02T07:31:04;6.70;99.90
1534;DHT22;760;48.822;9.304;2024-03-02T07:33:30;7.20;99.90
1534;DHT22;760;48.822;9.304;2024-03-02T07:35:57;7.80;99.90
1534;DHT22;760;48.822;9.304;2024-03-02T07:38:24;8.20;99.90
1534;DHT22;760;48.822;9.304;2024-03-02T07:40:50;8.70;99.90
1534;DHT22;760;48.822;9.304;2024-03-02T07:43:17;9.00;99.90
1534;DHT22;760;48.822;9.304;2024-03-02T07:45:42;9.60;99.90
1534;DHT22;760;48.822;9.304;2024-03-02T07:48:08;10.10;99.90
1534;DHT22;760;48.822;9.304;2024-03-02T07:50:34;10.70;99.90
1534;DHT22;760;48.822;9.304;2024-03-02T07:53:01;11.30;99.90
1534;DHT22;760;48.822;9.304;2024-03-02T07:55:26;11.80;99.90
1534;DHT22;760;48.822;9.304;2024-03-02T07:57:52;12.20;99.90
1534;DHT22;760;48.822;9.304;2024-03-02T08:00:18;12.50;99.90
1534;DHT22;760;48.822;9.304;2024-03-02T08:02:44;12.40;99.90
1534;DHT22;760;48.822;9.304;2024-03-02T08:05:10;12.40;99.90
1534;DHT22;760;48.822;9.304;2024-03-02T08:07:35;12.40;99.90
1534;DHT22;760;48.822;9.304;2024-03-02T08:10:01;12.30;99.90
1534;DHT22;760;48.822;9.304;2024-03-02T08:12:26;12.20;99.90
1534;DHT22;760;48.822;9.304;2024-03-02T08:14:52;11.90;99.90
1534;DHT22;760;48.822;9.304;2024-03-02T08:17:18;11.50;99.90
1534;DHT22;760;48.822;9.304;2024-03-02T08:19:44;11.30;99.90
1534;DHT22;760;48.822;9.304;2024-03-02T08:22:10;11.00;99.90
1534;DHT22;760;48.822;9.304;2024-03-02T08:24:36;10.70;99.90
1534;DHT22;760;48.822;9.304;2024-03-02T08:27:02;10.50;99.90
1534;DHT22;760;48.822;9.304;2024-03-02T08:29:28;10.40;99.90
1534;DHT22;760;48.822;9.304;2024-03-02T08:31:54;10.40;99.90
1534;DHT22;760;48.822;9.304;2024-03-02T08:34:19;10.60;99.90
1534;DHT22;760;48.822;9.304;2024-03-02T08:36:46;10.70;99.90
1534;DHT22;760;48.822;9.304;2024-03-02T08:39:12;10.90;99.90
1534;DHT22;760;48.822;9.304;2024-03-02T08:41:49;11.10;99.90
1534;DHT22;760;48.822;9.304;2024-03-02T08:44:16;11.30;99.90
1534;DHT22;760;48.822;9.304;2024-03-02T08:46:42;11.30;99.90
1534;DHT22;760;48.822;9.304;2024-03-02T08:49:07;11.40;99.90
1534;DHT22;760;48.822;9.304;2024-03-02T08:51:33;11.70;99.90
1534;DHT22;760;48.822;9.304;2024-03-02T08:53:59;12.10;99.90
1534;DHT22;760;48.822;9.304;2024-03-02T08:56:25;12.50;99.90
1534;DHT22;760;48.822;9.304;2024-03-02T08:58:51;13.00;99.90
1534;DHT22;760;48.822;9.304;2024-03-02T09:01:18;13.70;99.90
1534;DHT22;760;48.822;9.304;2024-03-02T09:03:45;14.20;99.90
1534;DHT22;760;48.822;9.304;2024-03-02T09:06:11;15.20;99.90
1534;DHT22;760;48.822;9.304;2024-03-02T09:08:38;16.20;99.90
1534;DHT22;760;48.822;9.304;2024-03-02T09:11:05;17.20;99.90
1534;DHT22;760;48.822;9.304;2024-03-02T09:13:32;18.20;98.60
1534;DHT22;760;48.822;9.304;2024-03-02T09:15:58;19.10;95.90
1534;DHT22;760;48.822;9.304;2024-03-02T09:18:25;19.90;94.90
1534;DHT22;760;48.822;9.304;2024-03-02T09:20:51;20.70;93.70
1534;DHT22;760;48.822;9.304;2024-03-02T09:23:17;21.50;91.90
1534;DHT22;760;48.822;9.304;2024-03-02T09:25:42;22.10;90.70
1534;DHT22;760;48.822;9.304;2024-03-02T09:28:08;22.80;87.70
1534;DHT22;760;48.822;9.304;2024-03-02T09:30:33;23.30;83.40
1534;DHT22;760;48.822;9.304;2024-03-02T09:32:59;23.20;81.90
1534;DHT22;760;48.822;9.304;2024-03-02T09:35:25;23.50;81.10
1534;DHT22;760;48.822;9.304;2024-03-02T09:37:50;23.80;81.90
1534;DHT22;760;48.822;9.304;2024-03-02T09:40:16;24.10;80.40
1534;DHT22;760;48.822;9.304;2024-03-02T09:42:42;24.50;78.70
1534;DHT22;760;48.822;9.304;2024-03-02T09:45:09;24.40;77.70
1534;DHT22;760;48.822;9.304;2024-03-02T09:47:35;24.60;78.60
1534;DHT22;760;48.822;9.304;2024-03-02T09:50:01;24.90;76.40
1534;DHT22;760;48.822;9.304;2024-03-02T09:52:27;24.90;77.00
1534;DHT22;760;48.822;9.304;2024-03-02T09:54:53;24.90;75.20
1534;DHT22;760;48.822;9.304;2024-03-02T09:57:18;24.60;75.70
1534;DHT22;760;48.822;9.304;2024-03-02T09:59:44;24.40;74.50
1534;DHT22;760;48.822;9.304;2024-03-02T10:02:11;24.30;76.10
1534;DHT22;760;48.822;9.304;2024-03-02T10:04:36;24.40;75.40
1534;DHT22;760;48.822;9.304;2024-03-02T10:07:12;24.50;73.60
1534;DHT22;760;48.822;9.304;2024-03-02T10:09:38;24.60;74.40
1534;DHT22;760;48.822;9.304;2024-03-02T10:12:05;24.90;74.50
1534;DHT22;760;48.822;9.304;2024-03-02T10:14:31;25.10;73.50
1534;DHT22;760;48.822;9.304;2024-03-02T10:17:02;25.30;66.20
1534;DHT22;760;48.822;9.304;2024-03-02T10:19:28;25.00;64.50
1534;DHT22;760;48.822;9.304;2024-03-02T10:21:58;24.70;65.10
1534;DHT22;760;48.822;9.304;2024-03-02T10:24:24;24.60;65.10
1534;DHT22;760;48.822;9.304;2024-03-02T10:26:51;24.30;66.60
1534;DHT22;760;48.822;9.304;2024-03-02T10:29:17;23.80;64.90
1534;DHT22;760;48.822;9.304;2024-03-02T10:31:46;23.40;66.50
1534;DHT22;760;48.822;9.304;2024-03-02T10:34:12;23.20;66.90
1534;DHT22;760;48.822;9.304;2024-03-02T10:36:41;23.00;67.10
1534;DHT22;760;48.822;9.304;2024-03-02T10:39:08;22.90;66.40
1534;DHT22;760;48.822;9.304;2024-03-02T10:41:36;22.70;67.50
1534;DHT22;760;48.822;9.304;2024-03-02T10:44:03;22.80;67.30
1534;DHT22;760;48.822;9.304;2024-03-02T10:46:31;22.60;67.60
1534;DHT22;760;48.822;9.304;2024-03-02T10:48:58;22.40;69.00
1534;DHT22;760;48.822;9.304;2024-03-02T10:51:28;22.20;69.00
1534;DHT22;760;48.822;9.304;2024-03-02T10:53:57;22.30;68.90
1534;DHT22;760;48.822;9.304;2024-03-02T10:56:30;22.20;68.30
1534;DHT22;760;48.822;9.304;2024-03-02T11:01:31;21.70;70.10
1534;DHT22;760;48.822;9.304;2024-03-02T11:03:58;21.60;69.70
1534;DHT22;760;48.822;9.304;2024-03-02T11:06:27;21.60;71.20
1534;DHT22;760;48.822;9.304;2024-03-02T11:08:55;21.50;72.00
1534;DHT22;760;48.822;9.304;2024-03-02T11:11:29;21.20;73.60
1534;DHT22;760;48.822;9.304;2024-03-02T11:13:57;21.30;73.50
1534;DHT22;760;48.822;9.304;2024-03-02T11:16:34;21.50;72.80
1534;DHT22;760;48.822;9.304;2024-03-02T11:19:05;21.70;72.80
1534;DHT22;760;48.822;9.304;2024-03-02T11:21:35;21.80;71.60
1534;DHT22;760;48.822;9.304;2024-03-02T11:26:46;21.00;73.00
1534;DHT22;760;48.822;9.304;2024-03-02T11:32:19;19.60;74.50
1534;DHT22;760;48.822;9.304;2024-03-02T11:34:48;18.80;76.20
1534;DHT22;760;48.822;9.304;2024-03-02T11:37:16;18.00;78.50
1534;DHT22;760;48.822;9.304;2024-03-02T11:39:45;17.40;79.50
1534;DHT22;760;48.822;9.304;2024-03-02T11:42:12;17.10;81.90
1534;DHT22;760;48.822;9.304;2024-03-02T11:44:50;16.80;83.10
1534;DHT22;760;48.822;9.304;2024-03-02T11:47:16;16.50;83.50
1534;DHT22;760;48.822;9.304;2024-03-02T11:49:44;16.30;84.30
1534;DHT22;760;48.822;9.304;2024-03-02T11:52:15;16.10;84.40
1534;DHT22;760;48.822;9.304;2024-03-02T11:54:43;15.90;85.40
1534;DHT22;760;48.822;9.304;2024-03-02T11:57:16;15.80;87.10
1534;DHT22;760;48.822;9.304;2024-03-02T11:59:42;15.80;85.90
1534;DHT22;760;48.822;9.304;2024-03-02T12:02:15;15.80;85.90
1534;DHT22;760;48.822;9.304;2024-03-02T12:04:42;15.70;86.70
1534;DHT22;760;48.822;9.304;2024-03-02T12:07:09;15.70;87.50
1534;DHT22;760;48.822;9.304;2024-03-02T12:09:35;15.60;86.70
1534;DHT22;760;48.822;9.304;2024-03-02T12:12:10;15.60;88.10
1534;DHT22;760;48.822;9.304;2024-03-02T12:14:37;15.50;87.40
1534;DHT22;760;48.822;9.304;2024-03-02T12:17:04;15.50;88.30
1534;DHT22;760;48.822;9.304;2024-03-02T12:19:31;15.50;88.30
1534;DHT22;760;48.822;9.304;2024-03-02T12:21:57;15.40;87.80
1534;DHT22;760;48.822;9.304;2024-03-02T12:24:23;15.50;88.20
1534;DHT22;760;48.822;9.304;2024-03-02T12:26:50;15.50;86.70
1534;DHT22;760;48.822;9.304;2024-03-02T12:29:21;15.50;87.30
1534;DHT22;760;48.822;9.304;2024-03-02T12:31:51;15.60;87.20
1534;DHT22;760;48.822;9.304;2024-03-02T12:34:21;15.70;88.00
1534;DHT22;760;48.822;9.304;2024-03-02T12:36:47;15.70;87.10
1534;DHT22;760;48.822;9.304;2024-03-02T12:39:15;15.80;87.80
1534;DHT22;760;48.822;9.304;2024-03-02T12:41:41;15.90;86.40
1534;DHT22;760;48.822;9.304;2024-03-02T12:44:07;15.90;86.30
1534;DHT22;760;48.822;9.304;2024-03-02T12:46:33;16.00;86.70
1534;DHT22;760;48.822;9.304;2024-03-02T12:49:07;16.00;86.10
1534;DHT22;760;48.822;9.304;2024-03-02T12:51:32;16.10;85.80
1534;DHT22;760;48.822;9.304;2024-03-02T12:53:58;16.20;85.40
1534;DHT22;760;48.822;9.304;2024-03-02T12:56:24;16.20;85.30
1534;DHT22;760;48.822;9.304;2024-03-02T12:58:54;16.30;85.40
1534;DHT22;760;48.822;9.304;2024-03-02T13:01:20;16.30;86.40
1534;DHT22;760;48.822;9.304;2024-03-02T13:03:48;16.30;86.60
1534;DHT22;760;48.822;9.304;2024-03-02T13:06:16;16.40;82.80
1534;DHT22;760;48.822;9.304;2024-03-02T13:08:42;16.40;85.40
1534;DHT22;760;48.822;9.304;2024-03-02T13:11:08;16.40;86.20
1534;DHT22;760;48.822;9.304;2024-03-02T13:13:33;16.30;86.20
1534;DHT22;760;48.822;9.304;2024-03-02T13:16:00;16.30;87.00
1534;DHT22;760;48.822;9.304;2024-03-02T13:18:26;16.30;87.50
1534;DHT22;760;48.822;9.304;2024-03-02T13:20:52;16.30;88.20
1534;DHT22;760;48.822;9.304;2024-03-02T13:23:18;16.30;87.10
1534;DHT22;760;48.822;9.304;2024-03-02T13:25:43;16.30;86.50
1534;DHT22;760;48.822;9.304;2024-03-02T13:28:09;16.20;85.30
1534;DHT22;760;48.822;9.304;2024-03-02T13:30:35;16.20;85.20
1534;DHT22;760;48.822;9.304;2024-03-02T13:33:01;16.20;85.60
1534;DHT22;760;48.822;9.304;2024-03-02T13:35:26;16.20;85.70
1534;DHT22;760;48.822;9.304;2024-03-02T13:37:52;16.20;84.50
1534;DHT22;760;48.822;9.304;2024-03-02T13:40:17;16.20;84.70
1534;DHT22;760;48.822;9.304;2024-03-02T13:42:47;16.30;84.80
1534;DHT22;760;48.822;9.304;2024-03-02T13:45:13;16.30;84.60
1534;DHT22;760;48.822;9.304;2024-03-02T13:47:39;16.30;84.30
1534;DHT22;760;48.822;9.304;2024-03-02T13:50:04;16.30;84.50
1534;DHT22;760;48.822;9.304;2024-03-02T13:52:31;16.30;84.20
1534;DHT22;760;48.822;9.304;2024-03-02T13:54:57;16.40;83.60
1534;DHT22;760;48.822;9.304;2024-03-02T13:57:22;16.40;82.90
1534;DHT22;760;48.822;9.304;2024-03-02T13:59:48;16.50;82.10
1534;DHT22;760;48.822;9.304;2024-03-02T14:02:15;16.40;82.10
1534;DHT22;760;48.822;9.304;2024-03-02T14:04:40;16.40;82.40
1534;DHT22;760;48.822;9.304;2024-03-02T14:07:07;16.40;82.60
1534;DHT22;760;48.822;9.304;2024-03-02T14:09:32;16.40;81.70
1534;DHT22;760;48.822;9.304;2024-03-02T14:11:58;16.40;80.80
1534;DHT22;760;48.822;9.304;2024-03-02T14:14:26;16.40;80.70
1534;DHT22;760;48.822;9.304;2024-03-02T14:16:53;16.40;79.90
1534;DHT22;760;48.822;9.304;2024-03-02T14:19:19;16.40;79.60
1534;DHT22;760;48.822;9.304;2024-03-02T14:21:46;16.40;79.60
1534;DHT22;760;48.822;9.304;2024-03-02T14:24:13;16.40;80.10
1534;DHT22;760;48.822;9.304;2024-03-02T14:26:38;16.40;79.00
1534;DHT22;760;48.822;9.304;2024-03-02T14:29:04;16.40;77.90
1534;DHT22;760;48.822;9.304;2024-03-02T14:31:30;16.30;78.30
1534;DHT22;760;48.822;9.304;2024-03-02T14:33:59;16.30;78.80
1534;DHT22;760;48.822;9.304;2024-03-02T14:36:26;16.30;78.40
1534;DHT22;760;48.822;9.304;2024-03-02T14:38:53;16.30;78.60
1534;DHT22;760;48.822;9.304;2024-03-02T14:41:19;16.30;77.90
1534;DHT22;760;48.822;9.304;2024-03-02T14:43:44;16.20;77.90
1534;DHT22;760;48.822;9.304;2024-03-02T14:46:10;16.20;78.50
1534;DHT22;760;48.822;9.304;2024-03-02T14:48:37;16.20;77.40
1534;DHT22;760;48.822;9.304;2024-03-02T14:51:03;16.30;77.10
1534;DHT22;760;48.822;9.304;2024-03-02T14:53:29;16.20;76.10
1534;DHT22;760;48.822;9.304;2024-03-02T14:55:55;16.20;77.00
1534;DHT22;760;48.822;9.304;2024-03-02T14:58:21;16.20;76.10
1534;DHT22;760;48.822;9.304;2024-03-02T15:00:46;16.20;75.50
1534;DHT22;760;48.822;9.304;2024-03-02T15:03:12;16.20;75.90
1534;DHT22;760;48.822;9.304;2024-03-02T15:05:38;16.10;76.00
1534;DHT22;760;48.822;9.304;2024-03-02T15:08:04;16.10;76.40
1534;DHT22;760;48.822;9.304;2024-03-02T15:10:33;16.00;77.10
1534;DHT22;760;48.822;9.304;2024-03-02T15:12:59;16.00;77.20
1534;DHT22;760;48.822;9.304;2024-03-02T15:15:25;16.00;77.60
1534;DHT22;760;48.822;9.304;2024-03-02T15:17:50;16.00;78.10
1534;DHT22;760;48.822;9.304;2024-03-02T15:20:18;16.00;77.30
1534;DHT22;760;48.822;9.304;2024-03-02T15:22:43;16.00;76.70
1534;DHT22;760;48.822;9.304;2024-03-02T15:25:09;15.90;76.80
1534;DHT22;760;48.822;9.304;2024-03-02T15:27:34;15.90;77.00
1534;DHT22;760;48.822;9.304;2024-03-02T15:30:00;15.90;78.30
1534;DHT22;760;48.822;9.304;2024-03-02T15:32:26;15.80;79.80
1534;DHT22;760;48.822;9.304;2024-03-02T15:34:53;15.70;80.70
1534;DHT22;760;48.822;9.304;2024-03-02T15:37:18;15.60;81.20
1534;DHT22;760;48.822;9.304;2024-03-02T15:39:44;15.50;81.50
1534;DHT22;760;48.822;9.304;2024-03-02T15:42:10;15.40;82.40
1534;DHT22;760;48.822;9.304;2024-03-02T15:44:35;15.40;83.30
1534;DHT22;760;48.822;9.304;2024-03-02T15:47:01;15.20;83.60
1534;DHT22;760;48.822;9.304;2024-03-02T15:49:26;15.20;82.40
1534;DHT22;760;48.822;9.304;2024-03-02T15:51:53;15.10;83.30
1534;DHT22;760;48.822;9.304;2024-03-02T15:54:19;14.90;84.90
1534;DHT22;760;48.822;9.304;2024-03-02T15:56:44;14.80;85.40
1534;DHT22;760;48.822;9.304;2024-03-02T15:59:11;14.80;86.20
1534;DHT22;760;48.822;9.304;2024-03-02T16:01:36;14.70;87.30
1534;DHT22;760;48.822;9.304;2024-03-02T16:04:02;14.60;88.30
1534;DHT22;760;48.822;9.304;2024-03-02T16:06:27;14.50;89.30
1534;DHT22;760;48.822;9.304;2024-03-02T16:08:53;14.50;89.40
1534;DHT22;760;48.822;9.304;2024-03-02T16:11:21;14.40;89.70
1534;DHT22;760;48.822;9.304;2024-03-02T16:13:47;14.30;90.00
1534;DHT22;760;48.822;9.304;2024-03-02T16:16:12;14.20;90.20
1534;DHT22;760;48.822;9.304;2024-03-02T16:18:38;14.10;90.50
1534;DHT22;760;48.822;9.304;2024-03-02T16:21:04;14.10;90.90
1534;DHT22;760;48.822;9.304;2024-03-02T16:23:29;14.00;91.20
1534;DHT22;760;48.822;9.304;2024-03-02T16:25:55;13.90;91.20
1534;DHT22;760;48.822;9.304;2024-03-02T16:28:21;13.90;91.50
1534;DHT22;760;48.822;9.304;2024-03-02T16:30:47;13.90;92.00
1534;DHT22;760;48.822;9.304;2024-03-02T16:33:12;13.80;92.40
1534;DHT22;760;48.822;9.304;2024-03-02T16:35:38;13.70;92.30
1534;DHT22;760;48.822;9.304;2024-03-02T16:38:04;13.70;92.50
1534;DHT22;760;48.822;9.304;2024-03-02T16:40:30;13.70;92.70
1534;DHT22;760;48.822;9.304;2024-03-02T16:42:57;13.70;92.90
1534;DHT22;760;48.822;9.304;2024-03-02T16:45:23;13.60;93.20
1534;DHT22;760;48.822;9.304;2024-03-02T16:47:48;13.50;93.60
1534;DHT22;760;48.822;9.304;2024-03-02T16:50:14;13.50;94.00
1534;DHT22;760;48.822;9.304;2024-03-02T16:52:42;13.50;94.30
1534;DHT22;760;48.822;9.304;2024-03-02T16:55:08;13.40;94.50
1534;DHT22;760;48.822;9.304;2024-03-02T16:57:34;13.40;94.70
1534;DHT22;760;48.822;9.304;2024-03-02T16:59:59;13.30;94.90
1534;DHT22;760;48.822;9.304;2024-03-02T17:02:25;13.20;95.10
1534;DHT22;760;48.822;9.304;2024-03-02T17:04:51;13.20;95.50
1534;DHT22;760;48.822;9.304;2024-03-02T17:07:16;13.10;95.90
1534;DHT22;760;48.822;9.304;2024-03-02T17:09:42;13.10;96.00
1534;DHT22;760;48.822;9.304;2024-03-02T17:12:07;13.00;96.20
1534;DHT22;760;48.822;9.304;2024-03-02T17:14:33;13.00;96.80
1534;DHT22;760;48.822;9.304;2024-03-02T17:16:59;12.80;97.30
1534;DHT22;760;48.822;9.304;2024-03-02T17:19:24;12.80;97.60
1534;DHT22;760;48.822;9.304;2024-03-02T17:21:50;12.80;98.10
1534;DHT22;760;48.822;9.304;2024-03-02T17:24:16;12.80;98.40
1534;DHT22;760;48.822;9.304;2024-03-02T17:26:42;12.80;98.70
1534;DHT22;760;48.822;9.304;2024-03-02T17:29:07;12.80;98.70
1534;DHT22;760;48.822;9.304;2024-03-02T17:31:33;12.80;99.00
1534;DHT22;760;48.822;9.304;2024-03-02T17:33:59;12.80;99.00
1534;DHT22;760;48.822;9.304;2024-03-02T17:36:25;12.70;99.00
1534;DHT22;760;48.822;9.304;2024-03-02T17:38:51;12.70;99.70
1534;DHT22;760;48.822;9.304;2024-03-02T17:41:17;12.70;99.50
1534;DHT22;760;48.822;9.304;2024-03-02T17:43:42;12.60;99.60
1534;DHT22;760;48.822;9.304;2024-03-02T17:46:08;12.60;99.70
1534;DHT22;760;48.822;9.304;2024-03-02T17:48:33;12.50;99.90
1534;DHT22;760;48.822;9.304;2024-03-02T17:50:59;12.50;99.90
1534;DHT22;760;48.822;9.304;2024-03-02T17:53:24;12.40;99.90
1534;DHT22;760;48.822;9.304;2024-03-02T17:55:50;12.40;99.90
1534;DHT22;760;48.822;9.304;2024-03-02T17:58:16;12.30;99.90
1534;DHT22;760;48.822;9.304;2024-03-02T18:00:41;12.20;99.90
1534;DHT22;760;48.822;9.304;2024-03-02T18:03:08;12.20;99.90
1534;DHT22;760;48.822;9.304;2024-03-02T18:05:33;12.10;99.90
1534;DHT22;760;48.822;9.304;2024-03-02T18:08:01;12.10;99.90
1534;DHT22;760;48.822;9.304;2024-03-02T18:10:26;12.10;99.90
1534;DHT22;760;48.822;9.304;2024-03-02T18:12:54;12.10;99.90
1534;DHT22;760;48.822;9.304;2024-03-02T18:15:20;12.10;99.90
1534;DHT22;760;48.822;9.304;2024-03-02T18:17:46;12.00;99.90
1534;DHT22;760;48.822;9.304;2024-03-02T18:20:12;12.00;99.90
1534;DHT22;760;48.822;9.304;2024-03-02T18:22:38;12.00;99.90
1534;DHT22;760;48.822;9.304;2024-03-02T18:25:04;12.00;99.90
1534;DHT22;760;48.822;9.304;2024-03-02T18:27:29;11.90;99.90
1534;DHT22;760;48.822;9.304;2024-03-02T18:29:55;11.90;99.90
1534;DHT22;760;48.822;9.304;2024-03-02T18:32:21;11.90;99.90
1534;DHT22;760;48.822;9.304;2024-03-02T18:34:47;11.90;99.90
1534;DHT22;760;48.822;9.304;2024-03-02T18:37:13;11.90;99.90
1534;DHT22;760;48.822;9.304;2024-03-02T18:39:42;11.80;99.90
1534;DHT22;760;48.822;9.304;2024-03-02T18:42:07;11.80;99.90
1534;DHT22;760;48.822;9.304;2024-03-02T18:44:33;11.80;99.90
1534;DHT22;760;48.822;9.304;2024-03-02T18:46:59;11.70;99.90
1534;DHT22;760;48.822;9.304;2024-03-02T18:49:25;11.80;99.90
1534;DHT22;760;48.822;9.304;2024-03-02T18:51:50;11.70;99.90
1534;DHT22;760;48.822;9.304;2024-03-02T18:54:16;11.70;99.90
1534;DHT22;760;48.822;9.304;2024-03-02T18:56:42;11.70;99.90
1534;DHT22;760;48.822;9.304;2024-03-02T18:59:07;11.70;99.90
1534;DHT22;760;48.822;9.304;2024-03-02T19:01:33;11.60;99.90
1534;DHT22;760;48.822;9.304;2024-03-02T19:03:59;11.50;99.90
1534;DHT22;760;48.822;9.304;2024-03-02T19:06:26;11.50;99.90
1534;DHT22;760;48.822;9.304;2024-03-02T19:08:52;11.50;99.90
1534;DHT22;760;48.822;9.304;2024-03-02T19:11:17;11.40;99.90
1534;DHT22;760;48.822;9.304;2024-03-02T19:13:46;11.30;99.90
1534;DHT22;760;48.822;9.304;2024-03-02T19:16:13;11.30;99.90
1534;DHT22;760;48.822;9.304;2024-03-02T19:18:39;11.30;99.90
1534;DHT22;760;48.822;9.304;2024-03-02T19:21:08;11.30;99.90
1534;DHT22;760;48.822;9.304;2024-03-02T19:23:35;11.20;99.90
1534;DHT22;760;48.822;9.304;2024-03-02T19:26:01;11.10;99.90
1534;DHT22;760;48.822;9.304;2024-03-02T19:28:27;11.10;99.90
1534;DHT22;760;48.822;9.304;2024-03-02T19:30:52;11.10;99.90
1534;DHT22;760;48.822;9.304;2024-03-02T19:33:18;11.10;99.90
1534;DHT22;760;48.822;9.304;2024-03-02T19:35:44;11.10;99.90
1534;DHT22;760;48.822;9.304;2024-03-02T19:38:10;11.10;99.90
1534;DHT22;760;48.822;9.304;2024-03-02T19:40:35;11.10;99.90
1534;DHT22;760;48.822;9.304;2024-03-02T19:43:01;11.10;99.90
1534;DHT22;760;48.822;9.304;2024-03-02T19:45:27;11.10;99.90
1534;DHT22;760;48.822;9.304;2024-03-02T19:47:53;11.10;99.90
1534;DHT22;760;48.822;9.304;2024-03-02T19:50:18;11.10;99.90
1534;DHT22;760;48.822;9.304;2024-03-02T19:52:44;11.20;99.90
1534;DHT22;760;48.822;9.304;2024-03-02T19:55:10;11.10;99.90
1534;DHT22;760;48.822;9.304;2024-03-02T19:57:38;11.10;99.90
1534;DHT22;760;48.822;9.304;2024-03-02T20:00:13;11.10;99.90
1534;DHT22;760;48.822;9.304;2024-03-02T20:02:39;11.10;99.90
1534;DHT22;760;48.822;9.304;2024-03-02T20:05:05;11.00;99.90
1534;DHT22;760;48.822;9.304;2024-03-02T20:07:32;11.00;99.90
1534;DHT22;760;48.822;9.304;2024-03-02T20:09:57;11.00;99.90
1534;DHT22;760;48.822;9.304;2024-03-02T20:12:23;10.90;99.90
1534;DHT22;760;48.822;9.304;2024-03-02T20:14:51;10.90;99.90
1534;DHT22;760;48.822;9.304;2024-03-02T20:17:18;10.80;99.90
1534;DHT22;760;48.822;9.304;2024-03-02T20:19:43;10.80;99.90
1534;DHT22;760;48.822;9.304;2024-03-02T20:22:10;10.80;99.90
1534;DHT22;760;48.822;9.304;2024-03-02T20:24:36;10.80;99.90
1534;DHT22;760;48.822;9.304;2024-03-02T20:27:01;10.70;99.90
1534;DHT22;760;48.822;9.304;2024-03-02T20:29:29;10.70;99.90
1534;DHT22;760;48.822;9.304;2024-03-02T20:31:55;10.60;99.90
1534;DHT22;760;48.822;9.304;2024-03-02T20:34:24;10.60;99.90
1534;DHT22;760;48.822;9.304;2024-03-02T20:36:50;10.50;99.90
1534;DHT22;760;48.822;9.304;2024-03-02T20:39:22;10.50;99.90
1534;DHT22;760;48.822;9.304;2024-03-02T20:41:48;10.40;99.90
1534;DHT22;760;48.822;9.304;2024-03-02T20:44:15;10.50;99.90
1534;DHT22;760;48.822;9.304;2024-03-02T20:46:42;10.50;99.90
1534;DHT22;760;48.822;9.304;2024-03-02T20:49:08;10.40;99.90
1534;DHT22;760;48.822;9.304;2024-03-02T20:51:34;10.40;99.90
1534;DHT22;760;48.822;9.304;2024-03-02T20:53:59;10.40;99.90
1534;DHT22;760;48.822;9.304;2024-03-02T20:56:26;10.40;99.90
1534;DHT22;760;48.822;9.304;2024-03-02T20:58:52;10.40;99.90
1534;DHT22;760;48.822;9.304;2024-03-02T21:01:18;10.40;99.90
1534;DHT22;760;48.822;9.304;2024-03-02T21:03:47;10.40;99.90
1534;DHT22;760;48.822;9.304;2024-03-02T21:06:13;10.40;99.90
1534;DHT22;760;48.822;9.304;2024-03-02T21:08:38;10.40;99.90
1534;DHT22;760;48.822;9.304;2024-03-02T21:11:04;10.40;99.90
1534;DHT22;760;48.822;9.304;2024-03-02T21:13:30;10.40;99.90
1534;DHT22;760;48.822;9.304;2024-03-02T21:15:56;10.40;99.90
1534;DHT22;760;48.822;9.304;2024-03-02T21:18:23;10.30;99.90
1534;DHT22;760;48.822;9.304;2024-03-02T21:20:48;10.30;99.90
1534;DHT22;760;48.822;9.304;2024-03-02T21:23:14;10.30;99.90
1534;DHT22;760;48.822;9.304;2024-03-02T21:25:43;10.30;99.90
1534;DHT22;760;48.822;9.304;2024-03-02T21:28:09;10.30;99.90